createdAt,value
2023-04-15T00:00:58.982Z,1.90
2023-04-15T00:03:28.708Z,1.60
2023-04-15T00:05:57.610Z,1.97
2023-04-15T00:08:26.019Z,2.07
2023-04-15T00:10:56.004Z,2.20
2023-04-15T00:13:24.296Z,2.20
2023-04-15T00:15:52.699Z,1.97
2023-04-15T00:18:21.061Z,2.40
2023-04-15T00:20:49.409Z,1.80
2023-04-15T00:23:18.102Z,2.50
2023-04-15T00:25:46.522Z,2.27
2023-04-15T00:28:16.445Z,2.70
2023-04-15T00:30:44.935Z,2.27
2023-04-15T00:33:14.209Z,2.87
2023-04-15T00:35:42.560Z,2.87
2023-04-15T00:38:11.585Z,3.07
2023-04-15T00:40:40.140Z,3.37
2023-04-15T00:43:08.511Z,3.50
2023-04-15T00:45:38.544Z,3.10
2023-04-15T00:48:07.443Z,3.87
2023-04-15T00:50:35.752Z,3.17
2023-04-15T00:53:04.144Z,3.37
2023-04-15T00:55:32.673Z,3.33
2023-04-15T00:58:01.090Z,3.70
2023-04-15T01:00:30.475Z,3.60
2023-04-15T01:03:00.668Z,3.40
2023-04-15T01:05:29.700Z,3.47
2023-04-15T01:07:58.608Z,3.43
2023-04-15T01:10:27.414Z,3.20
2023-04-15T01:12:55.869Z,3.00
2023-04-15T01:15:24.511Z,3.40
2023-04-15T01:17:52.896Z,3.90
2023-04-15T01:20:23.524Z,4.00
2023-04-15T01:22:52.838Z,3.77
2023-04-15T01:25:28.619Z,4.10
2023-04-15T01:27:57.124Z,4.37
2023-04-15T01:30:25.839Z,4.37
2023-04-15T01:32:54.411Z,4.23
2023-04-15T01:35:24.104Z,4.50
2023-04-15T01:37:52.686Z,3.93
2023-04-15T01:40:21.477Z,3.83
2023-04-15T01:42:51.209Z,4.57
2023-04-15T01:45:19.620Z,5.17
2023-04-15T01:47:48.070Z,5.27
2023-04-15T01:50:16.590Z,5.43
2023-04-15T01:52:44.899Z,5.83
2023-04-15T01:55:15.221Z,5.57
2023-04-15T01:57:43.508Z,5.73
2023-04-15T02:00:14.131Z,6.20
2023-04-15T02:02:42.553Z,6.17
2023-04-15T02:05:11.151Z,6.17
2023-04-15T02:07:39.493Z,6.87
2023-04-15T02:10:09.026Z,6.00
2023-04-15T02:12:37.472Z,6.43
2023-04-15T02:15:06.536Z,6.47
2023-04-15T02:17:37.806Z,6.47
2023-04-15T02:20:07.008Z,6.23
2023-04-15T02:22:35.365Z,6.37
2023-04-15T02:25:03.701Z,6.17
2023-04-15T02:27:33.007Z,5.67
2023-04-15T02:30:01.286Z,5.83
2023-04-15T02:32:29.758Z,6.17
2023-04-15T02:35:05.634Z,6.67
2023-04-15T02:37:37.137Z,5.00
2023-04-15T02:40:06.087Z,4.67
2023-04-15T02:42:34.350Z,4.90
2023-04-15T02:45:02.848Z,5.17
2023-04-15T02:47:31.395Z,4.40
2023-04-15T02:50:01.867Z,5.50
2023-04-15T02:52:30.203Z,4.70
2023-04-15T02:55:00.882Z,4.73
2023-04-15T02:57:29.787Z,5.03
2023-04-15T02:59:58.050Z,4.43
2023-04-15T03:02:26.656Z,4.53
2023-04-15T03:04:56.624Z,4.07
2023-04-15T03:07:26.745Z,3.50
2023-04-15T03:09:55.384Z,4.10
2023-04-15T03:12:23.758Z,4.23
2023-04-15T03:14:52.140Z,3.83
2023-04-15T03:17:20.662Z,4.43
2023-04-15T03:19:49.055Z,4.30
2023-04-15T03:22:17.365Z,4.83
2023-04-15T03:24:47.072Z,4.20
2023-04-15T03:27:15.490Z,4.47
2023-04-15T03:29:43.856Z,12.57
2023-04-15T03:32:12.940Z,27.47
2023-04-15T03:34:41.298Z,34.67
2023-04-15T03:37:09.836Z,36.83
2023-04-15T03:39:38.139Z,33.80
2023-04-15T03:42:07.828Z,19.70
2023-04-15T03:44:36.299Z,16.53
2023-04-15T03:47:04.629Z,10.00
2023-04-15T03:49:32.990Z,6.90
2023-04-15T03:52:01.626Z,5.47
2023-04-15T03:54:30.092Z,6.33
2023-04-15T03:56:58.417Z,6.43
2023-04-15T03:59:28.178Z,6.53
2023-04-15T04:01:56.621Z,5.30
2023-04-15T04:04:25.303Z,4.07
2023-04-15T04:06:53.658Z,3.97
2023-04-15T04:09:22.019Z,4.33
2023-04-15T04:11:50.456Z,4.53
2023-04-15T04:14:18.738Z,4.17
2023-04-15T04:16:48.486Z,4.30
2023-04-15T04:19:19.672Z,4.20
2023-04-15T04:21:48.063Z,4.57
2023-04-15T04:24:17.668Z,3.83
2023-04-15T04:26:46.424Z,4.30
2023-04-15T04:29:14.756Z,3.80
2023-04-15T04:31:43.195Z,4.97
2023-04-15T04:34:13.025Z,4.43
2023-04-15T04:36:41.541Z,4.00
2023-04-15T04:39:09.913Z,4.73
2023-04-15T04:41:38.299Z,4.17
2023-04-15T04:44:06.659Z,4.53
2023-04-15T04:46:35.038Z,4.73
2023-04-15T04:49:03.681Z,5.77
2023-04-15T04:51:33.796Z,5.50
2023-04-15T04:54:03.704Z,5.23
2023-04-15T04:56:32.263Z,4.90
2023-04-15T04:59:00.745Z,5.00
2023-04-15T05:01:29.536Z,4.67
2023-04-15T05:03:58.024Z,4.07
2023-04-15T05:06:26.465Z,3.87
2023-04-15T05:08:56.817Z,4.70
2023-04-15T05:11:25.179Z,4.20
2023-04-15T05:13:53.480Z,4.40
2023-04-15T05:16:21.871Z,4.53
2023-04-15T05:18:50.215Z,5.00
2023-04-15T05:21:18.604Z,4.70
2023-04-15T05:23:46.985Z,5.07
2023-04-15T05:26:16.719Z,4.03
2023-04-15T05:28:45.078Z,4.40
2023-04-15T05:31:13.486Z,4.03
2023-04-15T05:33:41.883Z,3.50
2023-04-15T05:36:10.654Z,3.40
2023-04-15T05:38:38.957Z,3.43
2023-04-15T05:41:07.418Z,4.40
2023-04-15T05:43:37.154Z,4.53
2023-04-15T05:46:05.659Z,3.90
2023-04-15T05:48:34.024Z,3.20
2023-04-15T05:51:02.552Z,3.60
2023-04-15T05:53:30.858Z,3.50
2023-04-15T05:55:59.173Z,3.60
2023-04-15T05:58:27.725Z,4.20
2023-04-15T06:00:57.524Z,3.30
2023-04-15T06:03:26.111Z,4.40
2023-04-15T06:05:54.429Z,4.03
2023-04-15T06:08:22.787Z,3.70
2023-04-15T06:10:51.177Z,4.00
2023-04-15T06:13:20.031Z,3.90
2023-04-15T06:15:48.723Z,4.80
2023-04-15T06:18:18.435Z,5.00
2023-04-15T06:20:47.007Z,4.68
2023-04-15T06:23:15.631Z,4.03
2023-04-15T06:25:44.105Z,4.23
2023-04-15T06:28:12.456Z,3.90
2023-04-15T06:30:40.806Z,3.73
2023-04-15T06:33:10.648Z,4.40
2023-04-15T06:35:41.184Z,4.53
2023-04-15T06:38:09.654Z,4.57
2023-04-15T06:40:38.033Z,4.80
2023-04-15T06:43:06.316Z,4.30
2023-04-15T06:45:34.647Z,4.50
2023-04-15T06:48:03.089Z,4.40
2023-04-15T06:50:31.440Z,4.60
2023-04-15T06:53:01.228Z,4.70
2023-04-15T06:55:29.554Z,3.93
2023-04-15T06:57:57.832Z,4.10
2023-04-15T07:00:26.253Z,4.30
2023-04-15T07:02:55.401Z,4.90
2023-04-15T07:05:32.508Z,4.20
2023-04-15T07:08:02.297Z,4.07
2023-04-15T07:10:30.736Z,4.17
2023-04-15T07:12:59.133Z,5.13
2023-04-15T07:15:27.665Z,4.03
2023-04-15T07:17:56.381Z,4.47
2023-04-15T07:20:24.798Z,4.13
2023-04-15T07:22:53.238Z,4.20
2023-04-15T07:25:23.228Z,4.10
2023-04-15T07:27:51.583Z,4.07
2023-04-15T07:30:19.969Z,3.87
2023-04-15T07:32:48.496Z,4.07
2023-04-15T07:35:16.982Z,3.07
2023-04-15T07:37:45.309Z,2.70
2023-04-15T07:40:14.744Z,3.40
2023-04-15T07:42:44.742Z,3.30
2023-04-15T07:45:14.060Z,3.20
2023-04-15T07:47:42.961Z,3.20
2023-04-15T07:50:12.445Z,2.97
2023-04-15T07:52:41.012Z,3.30
2023-04-15T07:55:25.769Z,3.13
2023-04-15T07:57:56.194Z,3.00
2023-04-15T08:00:24.759Z,2.40
2023-04-15T08:02:54.157Z,2.47
2023-04-15T08:05:22.706Z,2.80
2023-04-15T08:07:51.185Z,2.17
2023-04-15T08:10:19.605Z,2.23
2023-04-15T08:12:49.669Z,2.37
2023-04-15T08:15:19.644Z,2.83
2023-04-15T08:17:48.062Z,2.80
2023-04-15T08:20:16.599Z,2.10
2023-04-15T08:22:44.991Z,2.70
2023-04-15T08:25:29.719Z,2.70
2023-04-15T08:28:06.050Z,2.77
2023-04-15T08:30:35.796Z,2.70
2023-04-15T08:33:04.169Z,2.03
2023-04-15T08:35:32.874Z,2.07
2023-04-15T08:38:01.193Z,1.63
2023-04-15T08:40:42.038Z,2.00
2023-04-15T08:43:11.547Z,2.07
2023-04-15T08:45:41.929Z,1.80
2023-04-15T08:48:15.000Z,1.50
2023-04-15T08:50:43.439Z,1.83
2023-04-15T08:53:12.809Z,2.07
2023-04-15T08:55:45.844Z,2.20
2023-04-15T08:58:14.862Z,1.63
2023-04-15T09:00:44.643Z,1.40
2023-04-15T09:03:13.372Z,1.47
2023-04-15T09:05:41.797Z,1.33
2023-04-15T09:08:10.335Z,2.07
2023-04-15T09:10:38.678Z,1.70
2023-04-15T09:13:07.026Z,1.33
2023-04-15T09:15:39.126Z,1.83
2023-04-15T09:18:09.045Z,1.30
2023-04-15T09:20:42.139Z,1.60
2023-04-15T09:23:14.660Z,1.67
2023-04-15T09:25:43.582Z,1.37
2023-04-15T09:28:12.137Z,1.48
2023-04-15T09:30:40.601Z,1.30
2023-04-15T09:33:11.073Z,1.48
2023-04-15T09:35:39.420Z,1.50
2023-04-15T09:38:09.946Z,1.67
2023-04-15T09:40:39.331Z,1.40
2023-04-15T09:43:09.510Z,1.33
2023-04-15T09:45:38.136Z,1.20
2023-04-15T09:48:20.964Z,0.90
2023-04-15T09:50:50.457Z,1.02
2023-04-15T09:53:20.422Z,1.05
2023-04-15T09:55:51.859Z,1.60
2023-04-15T09:58:21.564Z,1.80
2023-04-15T10:00:51.302Z,1.50
2023-04-15T10:03:23.963Z,1.20
2023-04-15T10:05:54.000Z,1.38
2023-04-15T10:08:25.185Z,6.30
2023-04-15T10:10:54.055Z,2.80
2023-04-15T10:13:23.757Z,2.65
2023-04-15T10:15:57.466Z,1.30
2023-04-15T10:18:28.347Z,1.30
2023-04-15T10:20:57.038Z,1.48
2023-04-15T10:23:25.888Z,2.00
2023-04-15T10:25:55.553Z,1.40
2023-04-15T10:28:24.338Z,1.42
2023-04-15T10:30:53.800Z,1.50
2023-04-15T10:33:25.599Z,1.00
2023-04-15T10:35:56.865Z,1.10
2023-04-15T10:38:35.876Z,1.20
2023-04-15T10:41:20.469Z,1.60
2023-04-15T10:43:53.180Z,1.00
2023-04-15T10:46:36.814Z,1.38
2023-04-15T10:49:11.163Z,1.00
2023-04-15T10:51:45.121Z,0.90
2023-04-15T10:54:24.314Z,1.10
2023-04-15T10:56:53.985Z,1.20
2023-04-15T10:59:23.768Z,1.20
2023-04-15T11:01:53.753Z,0.70
2023-04-15T11:04:56.176Z,0.90
2023-04-15T11:07:48.720Z,0.70
2023-04-15T11:10:56.346Z,0.82
2023-04-15T11:13:28.390Z,0.68
2023-04-15T11:16:04.281Z,0.70
2023-04-15T11:18:34.607Z,0.90
2023-04-15T11:21:05.131Z,0.70
2023-04-15T11:23:40.155Z,1.00
2023-04-15T11:26:12.223Z,0.80
2023-04-15T11:28:42.250Z,0.60
2023-04-15T11:31:12.457Z,0.60
2023-04-15T11:33:48.121Z,0.77
2023-04-15T11:36:16.495Z,0.80
2023-04-15T11:38:48.120Z,0.80
2023-04-15T11:41:16.692Z,0.70
2023-04-15T11:43:45.013Z,0.63
2023-04-15T11:46:13.471Z,0.50
2023-04-15T11:48:44.950Z,1.15
2023-04-15T11:51:22.442Z,0.88
2023-04-15T11:53:54.861Z,0.63
2023-04-15T11:56:24.996Z,0.80
2023-04-15T11:58:57.142Z,0.80
2023-04-15T12:01:33.055Z,0.70
2023-04-15T12:04:02.496Z,0.60
2023-04-15T12:06:36.995Z,0.70
2023-04-15T12:09:14.573Z,0.70
2023-04-15T12:11:49.772Z,0.77
2023-04-15T12:14:23.706Z,0.57
2023-04-15T12:16:55.106Z,0.70
2023-04-15T12:19:28.728Z,0.95
2023-04-15T12:22:01.054Z,0.60
2023-04-15T12:24:33.550Z,0.70
2023-04-15T12:27:04.801Z,0.70
2023-04-15T12:29:34.307Z,0.60
2023-04-15T12:32:08.563Z,0.50
2023-04-15T12:34:38.361Z,0.52
2023-04-15T12:37:09.549Z,0.60
2023-04-15T12:39:40.665Z,0.60
2023-04-15T12:42:10.288Z,0.57
2023-04-15T12:44:39.584Z,0.77
2023-04-15T12:47:09.556Z,0.50
2023-04-15T12:49:38.086Z,0.70
2023-04-15T12:52:07.337Z,0.80
2023-04-15T12:54:36.216Z,0.70
2023-04-15T12:57:07.506Z,0.68
2023-04-15T12:59:36.531Z,0.50
2023-04-15T13:02:05.683Z,0.65
2023-04-15T13:04:34.225Z,2.67
2023-04-15T13:07:03.252Z,2.17
2023-04-15T13:09:32.479Z,2.08
2023-04-15T13:12:02.315Z,2.10
2023-04-15T13:14:31.948Z,4.68
2023-04-15T13:17:00.885Z,10.07
2023-04-15T13:19:29.207Z,2.25
2023-04-15T13:21:57.652Z,1.70
2023-04-15T13:24:26.165Z,1.73
2023-04-15T13:26:54.807Z,4.57
2023-04-15T13:29:23.456Z,1.02
2023-04-15T13:31:53.266Z,6.03
2023-04-15T13:34:21.618Z,2.35
2023-04-15T13:36:49.927Z,1.33
2023-04-15T13:39:18.358Z,4.03
2023-04-15T13:41:48.521Z,1.83
2023-04-15T13:44:17.037Z,2.15
2023-04-15T13:46:45.599Z,2.53
2023-04-15T13:49:15.455Z,0.80
2023-04-15T13:51:43.835Z,0.60
2023-04-15T13:54:12.244Z,1.00
2023-04-15T13:56:40.873Z,1.35
2023-04-15T13:59:09.254Z,0.98
2023-04-15T14:01:37.880Z,1.25
2023-04-15T14:04:06.722Z,1.42
2023-04-15T14:06:36.874Z,1.38
2023-04-15T14:09:05.621Z,0.88
2023-04-15T14:11:35.504Z,1.27
2023-04-15T14:14:04.088Z,0.65
2023-04-15T14:16:34.294Z,1.65
2023-04-15T14:19:03.211Z,1.40
2023-04-15T14:21:32.659Z,1.52
2023-04-15T14:24:02.441Z,1.40
2023-04-15T14:26:30.763Z,0.70
2023-04-15T14:28:59.081Z,1.05
2023-04-15T14:31:27.381Z,0.70
2023-04-15T14:33:55.873Z,0.50
2023-04-15T14:36:24.257Z,1.00
2023-04-15T14:38:52.567Z,0.90
2023-04-15T14:41:22.510Z,0.77
2023-04-15T14:43:50.897Z,0.82
2023-04-15T14:46:19.191Z,0.57
2023-04-15T14:48:47.670Z,1.05
2023-04-15T14:51:16.192Z,0.63
2023-04-15T14:53:44.816Z,0.60
2023-04-15T14:56:13.436Z,1.40
2023-04-15T14:58:43.219Z,0.60
2023-04-15T15:01:11.675Z,0.50
2023-04-15T15:03:41.126Z,1.05
2023-04-15T15:06:10.218Z,0.90
2023-04-15T15:08:38.560Z,0.60
2023-04-15T15:11:06.918Z,0.70
2023-04-15T15:13:35.229Z,0.88
2023-04-15T15:16:05.727Z,1.00
2023-04-15T15:18:34.122Z,0.73
2023-04-15T15:21:02.503Z,0.40
2023-04-15T15:23:32.315Z,0.50
2023-04-15T15:26:00.918Z,0.70
2023-04-15T15:28:29.216Z,0.40
2023-04-15T15:30:57.662Z,0.73
2023-04-15T15:33:34.773Z,0.52
2023-04-15T15:36:03.218Z,0.50
2023-04-15T15:38:31.550Z,0.40
2023-04-15T15:40:59.908Z,0.45
2023-04-15T15:43:28.210Z,0.50
2023-04-15T15:45:56.709Z,0.40
2023-04-15T15:48:26.751Z,0.50
2023-04-15T15:50:55.361Z,0.47
2023-04-15T15:53:25.835Z,0.40
2023-04-15T15:55:54.156Z,0.40
2023-04-15T15:58:22.586Z,0.98
2023-04-15T16:00:50.958Z,0.60
2023-04-15T16:03:19.782Z,0.30
2023-04-15T16:05:49.737Z,0.20
2023-04-15T16:08:18.205Z,0.50
2023-04-15T16:10:46.858Z,0.70
2023-04-15T16:13:15.405Z,0.40
2023-04-15T16:15:43.770Z,0.30
2023-04-15T16:18:12.066Z,0.38
2023-04-15T16:20:40.590Z,0.65
2023-04-15T16:23:14.228Z,0.57
2023-04-15T16:25:44.066Z,0.60
2023-04-15T16:28:25.827Z,0.77
2023-04-15T16:30:55.195Z,0.60
2023-04-15T16:33:23.752Z,0.65
2023-04-15T16:35:52.692Z,0.57
2023-04-15T16:38:31.955Z,0.93
2023-04-15T16:41:06.030Z,0.60
2023-04-15T16:43:34.378Z,0.70
2023-04-15T16:46:02.721Z,1.00
2023-04-15T16:48:31.119Z,0.50
2023-04-15T16:50:59.547Z,0.50
2023-04-15T16:53:27.931Z,0.65
2023-04-15T16:55:57.709Z,1.25
2023-04-15T16:58:26.096Z,2.45
2023-04-15T17:00:54.466Z,4.88
2023-04-15T17:03:23.004Z,7.35
2023-04-15T17:05:51.574Z,8.25
2023-04-15T17:08:19.945Z,6.30
2023-04-15T17:10:48.311Z,8.98
2023-04-15T17:13:18.031Z,5.05
2023-04-15T17:15:46.428Z,4.53
2023-04-15T17:18:14.725Z,2.93
2023-04-15T17:20:43.066Z,3.10
2023-04-15T17:23:11.444Z,2.03
2023-04-15T17:25:39.877Z,2.37
2023-04-15T17:28:08.270Z,2.70
2023-04-15T17:30:38.043Z,1.80
2023-04-15T17:33:56.131Z,2.53
2023-04-15T17:35:55.275Z,1.93
2023-04-15T17:38:26.596Z,2.40
2023-04-15T17:40:55.242Z,3.00
2023-04-15T17:43:23.542Z,2.10
2023-04-15T17:45:53.827Z,2.80
2023-04-15T17:48:22.182Z,2.43
2023-04-15T17:50:51.891Z,2.47
2023-04-15T17:53:20.620Z,3.30
2023-04-15T17:55:50.378Z,3.30
2023-04-15T17:58:18.846Z,2.63
2023-04-15T18:00:47.508Z,3.27
2023-04-15T18:03:17.391Z,3.37
2023-04-15T18:05:45.824Z,3.07
2023-04-15T18:08:14.217Z,3.70
2023-04-15T18:10:42.453Z,3.37
2023-04-15T18:13:10.749Z,3.67
2023-04-15T18:15:39.246Z,2.80
2023-04-15T18:18:07.543Z,3.53
2023-04-15T18:20:37.261Z,3.23
2023-04-15T18:23:05.581Z,2.77
2023-04-15T18:25:34.301Z,2.90
2023-04-15T18:28:02.678Z,2.80
2023-04-15T18:30:31.033Z,3.83
2023-04-15T18:32:59.442Z,1.97
2023-04-15T18:35:29.952Z,3.13
2023-04-15T18:37:59.794Z,2.40
2023-04-15T18:40:28.236Z,2.80
2023-04-15T18:42:56.890Z,3.60
2023-04-15T18:45:25.343Z,2.30
2023-04-15T18:47:53.799Z,2.87
2023-04-15T18:50:22.238Z,3.40
2023-04-15T18:52:50.558Z,4.90
2023-04-15T18:55:20.477Z,4.10
2023-04-15T18:57:48.910Z,4.17
2023-04-15T19:00:17.551Z,5.30
2023-04-15T19:02:45.980Z,5.70
2023-04-15T19:05:14.420Z,4.77
2023-04-15T19:07:42.797Z,5.50
2023-04-15T19:10:12.451Z,5.13
2023-04-15T19:12:42.202Z,4.73
2023-04-15T19:15:10.962Z,5.10
2023-04-15T19:17:39.285Z,4.80
2023-04-15T19:20:08.534Z,4.00
2023-04-15T19:22:37.812Z,6.37
2023-04-15T19:25:07.555Z,4.37
2023-04-15T19:27:36.052Z,4.73
2023-04-15T19:30:06.633Z,5.17
2023-04-15T19:32:35.007Z,5.20
2023-04-15T19:35:03.366Z,5.10
2023-04-15T19:37:31.672Z,6.63
2023-04-15T19:40:00.516Z,6.50
2023-04-15T19:42:28.844Z,6.80
2023-04-15T19:44:57.130Z,6.10
2023-04-15T19:47:26.866Z,6.43
2023-04-15T19:49:55.209Z,8.13
2023-04-15T19:52:23.522Z,6.27
2023-04-15T19:54:51.886Z,7.30
2023-04-15T19:57:20.165Z,5.93
2023-04-15T19:59:48.518Z,4.57
2023-04-15T20:02:17.177Z,6.10
2023-04-15T20:04:47.114Z,5.83
2023-04-15T20:07:15.604Z,6.00
2023-04-15T20:09:45.504Z,5.93
2023-04-15T20:12:50.411Z,6.07
2023-04-15T20:15:02.129Z,6.07
2023-04-15T20:17:34.093Z,6.17
2023-04-15T20:20:04.675Z,5.07
2023-04-15T20:22:33.013Z,5.67
2023-04-15T20:25:02.084Z,6.20
2023-04-15T20:27:30.562Z,5.67
2023-04-15T20:29:58.852Z,6.17
2023-04-15T20:32:28.460Z,6.00
2023-04-15T20:34:56.995Z,6.50
2023-04-15T20:37:26.760Z,5.07
2023-04-15T20:39:55.166Z,5.97
2023-04-15T20:42:23.544Z,5.30
2023-04-15T20:44:51.908Z,5.53
2023-04-15T20:47:20.312Z,4.83
2023-04-15T20:49:48.811Z,4.63
2023-04-15T20:52:17.079Z,4.00
2023-04-15T20:54:46.951Z,4.57
2023-04-15T20:57:15.488Z,3.80
2023-04-15T20:59:43.884Z,4.10
2023-04-15T21:02:12.422Z,3.87
2023-04-15T21:04:40.801Z,4.03
2023-04-15T21:07:09.138Z,3.37
2023-04-15T21:09:38.719Z,3.53
2023-04-15T21:12:08.459Z,4.20
2023-04-15T21:14:37.738Z,3.70
2023-04-15T21:17:09.242Z,5.73
2023-04-15T21:19:39.230Z,4.47
2023-04-15T21:22:07.805Z,4.83
2023-04-15T21:24:36.302Z,4.50
2023-04-15T21:27:04.657Z,4.37
2023-04-15T21:29:34.465Z,3.87
2023-04-15T21:32:02.865Z,2.33
2023-04-15T21:34:31.221Z,1.60
2023-04-15T21:36:59.482Z,2.53
2023-04-15T21:39:27.883Z,1.60
2023-04-15T21:41:56.773Z,1.63
2023-04-15T21:44:25.641Z,1.67
2023-04-15T21:46:55.495Z,1.27
2023-04-15T21:49:25.429Z,1.10
2023-04-15T21:51:53.911Z,1.40
2023-04-15T21:54:22.192Z,1.00
2023-04-15T21:56:50.984Z,1.30
2023-04-15T21:59:19.337Z,1.30
2023-04-15T22:01:47.792Z,1.53
2023-04-15T22:04:17.831Z,1.20
2023-04-15T22:06:46.540Z,1.10
2023-04-15T22:09:14.835Z,1.07
2023-04-15T22:11:43.265Z,1.20
2023-04-15T22:14:11.511Z,0.70
2023-04-15T22:16:39.791Z,1.70
2023-04-15T22:19:08.326Z,1.43
2023-04-15T22:21:38.481Z,1.30
2023-04-15T22:24:32.953Z,1.23
2023-04-15T22:26:55.828Z,1.00
2023-04-15T22:29:24.120Z,1.40
2023-04-15T22:31:52.483Z,1.40
2023-04-15T22:34:21.615Z,1.53
2023-04-15T22:36:51.908Z,1.13
2023-04-15T22:39:21.053Z,1.47
2023-04-15T22:41:51.400Z,1.20
2023-04-15T22:44:19.758Z,0.80
2023-04-15T22:46:48.040Z,1.50
2023-04-15T22:49:16.348Z,1.13
2023-04-15T22:51:45.100Z,1.10
2023-04-15T22:54:14.819Z,1.27
2023-04-15T22:56:43.200Z,1.53
2023-04-15T22:59:11.622Z,1.30
2023-04-15T23:01:40.185Z,1.03
2023-04-15T23:04:09.516Z,1.10
2023-04-15T23:06:51.016Z,1.37
2023-04-15T23:09:21.010Z,1.43
2023-04-15T23:11:49.388Z,1.43
2023-04-15T23:14:17.813Z,1.60
2023-04-15T23:16:46.526Z,1.50
2023-04-15T23:19:14.912Z,2.33
2023-04-15T23:21:43.491Z,1.20
2023-04-15T23:24:12.608Z,1.80
2023-04-15T23:26:42.366Z,1.67
2023-04-15T23:29:11.393Z,1.50
2023-04-15T23:31:43.069Z,2.70
2023-04-15T23:34:11.707Z,1.30
2023-04-15T23:36:40.510Z,2.00
2023-04-15T23:39:09.127Z,1.73
2023-04-15T23:41:37.724Z,2.07
2023-04-15T23:44:08.224Z,1.70
2023-04-15T23:46:36.575Z,2.30
2023-04-15T23:49:05.064Z,1.80
2023-04-15T23:51:33.418Z,2.13
2023-04-15T23:54:01.826Z,2.30
2023-04-15T23:56:30.162Z,2.20
2023-04-15T23:58:58.504Z,2.00
